Time,TemperatureF,DewpointF,PressureIn,WindDirection,WindDirectionDegrees,WindSpeedMPH,WindSpeedGustMPH,Humidity,HourlyPrecipIn,Conditions,Clouds,dailyrainin,SoftwareType,DateUTC
2013-01-24 00:00:00,9.1,0.0,30.16,WSW,253,9.3,24.7,0,0.00,,---,0.00,VWS V14.00,2013-01-24 05:00:00,
2013-01-24 00:01:00,9.0,0.0,30.16,NW,314,8.8,24.7,0,0.00,,---,0.00,VWS V14.00,2013-01-24 05:01:00,
2013-01-24 00:02:00,2.7,0.0,30.09,NNW,329,7.8,10.3,0,0.00,,---,0.00,VWS V14.00,2013-01-24 05:02:00,
2013-01-24 00:03:00,2.8,0.0,30.09,West,267,6.1,16.1,0,0.00,,---,0.00,VWS V14.00,2013-01-24 05:03:00,
2013-01-24 00:04:00,9.1,0.0,30.17,NNW,332,9.3,24.7,0,0.00,,---,0.00,VWS V14.00,2013-01-24 05:04:00,
2013-01-24 00:05:00,9.0,0.0,30.17,WSW,246,11.1,20.4,0,0.00,,---,0.00,VWS V14.00,2013-01-24 05:05:00,
2013-01-24 00:06:00,9.0,0.0,30.18,WNW,292,10.6,20.4,0,0.00,,---,0.00,VWS V14.00,2013-01-24 05:06:00,
2013-01-24 00:07:00,8.9,0.0,30.18,WNW,290,11.2,20.4,0,0.00,,---,0.00,VWS V14.00,2013-01-24 05:07:00,
2013-01-24 00:08:00,2.8,0.0,30.09,SW,221,6.5,13.0,0,0.00,,---,0.00,VWS V14.00,2013-01-24 05:08:00,
2013-01-24 00:13:00,2.7,0.0,30.09,WNW,288,4.6,18.1,0,0.00,,---,0.00,VWS V14.00,2013-01-24 05:13:00,
2013-01-24 00:18:00,2.7,0.0,30.09,West,281,9.3,14.9,0,0.00,,---,0.00,VWS V14.00,2013-01-24 05:18:00,
2013-01-24 00:23:00,2.8,0.0,30.09,West,277,11.2,13.5,0,0.00,,---,0.00,VWS V14.00,2013-01-24 05:23:00,
2013-01-24 00:28:00,2.6,0.0,30.09,SW,228,6.8,19.8,0,0.00,,---,0.00,VWS V14.00,2013-01-24 05:28:00,
2013-01-24 00:33:00,2.6,0.0,30.09,WSW,249,8.7,16.5,0,0.00,,---,0.00,VWS V14.00,2013-01-24 05:33:00,
2013-01-24 00:38:00,2.6,0.0,30.09,West,270,14.5,15.8,0,0.00,,---,0.00,VWS V14.00,2013-01-24 05:38:00,
2013-01-24 00:43:00,2.5,0.0,30.09,WNW,285,11.7,17.5,0,0.00,,---,0.00,VWS V14.00,2013-01-24 05:43:00,
2013-01-24 00:48:00,2.4,0.0,30.09,WNW,291,8.1,18.0,0,0.00,,---,0.00,VWS V14.00,2013-01-24 05:48:00,
2013-01-24 00:53:00,2.3,0.0,30.09,WNW,294,11.6,17.5,0,0.00,,---,0.00,VWS V14.00,2013-01-24 05:53:00,
2013-01-24 00:58:00,2.3,0.0,30.09,West,274,12.2,15.3,0,0.00,,---,0.00,VWS V14.00,2013-01-24 05:58:00,
2013-01-24 01:03:00,2.3,0.0,30.09,WNW,287,7.6,20.3,0,0.00,,---,0.00,VWS V14.00,2013-01-24 06:03:00,
2013-01-24 01:08:00,2.3,0.0,30.09,West,270,8.6,17.3,0,0.00,,---,0.00,VWS V14.00,2013-01-24 06:08:00,
2013-01-24 01:13:00,2.2,0.0,30.09,West,267,12.1,18.3,0,0.00,,---,0.00,VWS V14.00,2013-01-24 06:13:00,
2013-01-24 01:18:00,2.1,0.0,30.09,WNW,298,12.9,17.1,0,0.00,,---,0.00,VWS V14.00,2013-01-24 06:18:00,
2013-01-24 01:23:00,2.2,0.0,30.09,West,270,0.0,18.5,0,0.00,,---,0.00,VWS V14.00,2013-01-24 06:23:00,
2013-01-24 01:28:00,2.1,0.0,30.09,NW,307,7.7,16.3,0,0.00,,---,0.00,VWS V14.00,2013-01-24 06:28:00,
2013-01-24 01:33:00,2.0,0.0,30.09,SSW,200,5.2,17.2,0,0.00,,---,0.00,VWS V14.00,2013-01-24 06:33:00,
2013-01-24 01:38:00,1.9,0.0,30.09,SW,219,5.3,14.5,0,0.00,,---,0.00,VWS V14.00,2013-01-24 06:38:00,
2013-01-24 01:43:00,1.7,0.0,30.08,WSW,243,9.0,20.3,0,0.00,,---,0.00,VWS V14.00,2013-01-24 06:43:00,
2013-01-24 01:48:00,1.8,0.0,30.09,WNW,301,8.0,15.1,0,0.00,,---,0.00,VWS V14.00,2013-01-24 06:48:00,
2013-01-24 01:53:00,1.8,0.0,30.09,West,271,8.0,17.1,0,0.00,,---,0.00,VWS V14.00,2013-01-24 06:53:00,
2013-01-24 01:58:00,1.6,0.0,30.09,WNW,287,6.7,16.9,0,0.00,,---,0.00,VWS V14.00,2013-01-24 06:58:00,
2013-01-24 02:03:00,1.5,0.0,30.09,WSW,243,9.9,16.0,0,0.00,,---,0.00,VWS V14.00,2013-01-24 07:03:00,
2013-01-24 02:08:00,1.5,0.0,30.09,West,262,6.4,16.8,0,0.00,,---,0.00,VWS V14.00,2013-01-24 07:08:00,
2013-01-24 02:13:00,1.4,0.0,30.09,West,271,5.3,18.5,0,0.00,,---,0.00,VWS V14.00,2013-01-24 07:13:00,
2013-01-24 02:18:00,1.4,0.0,30.09,West,277,8.8,17.2,0,0.00,,---,0.00,VWS V14.00,2013-01-24 07:18:00,
2013-01-24 02:23:00,1.4,0.0,30.09,West,273,13.2,20.8,0,0.00,,---,0.00,VWS V14.00,2013-01-24 07:23:00,
2013-01-24 02:28:00,1.3,0.0,30.09,WSW,257,5.5,15.6,0,0.00,,---,0.00,VWS V14.00,2013-01-24 07:28:00,
2013-01-24 02:33:00,1.2,0.0,30.09,WNW,285,5.5,19.1,0,0.00,,---,0.00,VWS V14.00,2013-01-24 07:33:00,
2013-01-24 02:38:00,1.1,0.0,30.09,WNW,301,7.3,19.3,0,0.00,,---,0.00,VWS V14.00,2013-01-24 07:38:00,
2013-01-24 02:43:00,1.1,0.0,30.09,NW,311,0.0,21.1,0,0.00,,---,0.00,VWS V14.00,2013-01-24 07:43:00,
2013-01-24 02:48:00,1.1,0.0,30.08,WNW,284,9.1,16.4,0,0.00,,---,0.00,VWS V14.00,2013-01-24 07:48:00,
2013-01-24 02:53:00,1.0,0.0,30.08,SW,224,8.0,21.1,0,0.00,,---,0.00,VWS V14.00,2013-01-24 07:53:00,
2013-01-24 02:58:00,0.9,0.0,30.08,West,266,9.9,15.8,0,0.00,,---,0.00,VWS V14.00,2013-01-24 07:58:00,
2013-01-24 03:03:00,1.0,0.0,30.08,WSW,242,10.4,14.1,0,0.00,,---,0.00,VWS V14.00,2013-01-24 08:03:00,
2013-01-24 03:08:00,0.9,0.0,30.08,West,260,11.4,18.8,0,0.00,,---,0.00,VWS V14.00,2013-01-24 08:08:00,
2013-01-24 03:13:00,0.8,0.0,30.08,NW,321,4.3,15.5,0,0.00,,---,0.00,VWS V14.00,2013-01-24 08:13:00,
2013-01-24 03:18:00,0.7,0.0,30.08,NW,326,0.0,20.0,0,0.00,,---,0.00,VWS V14.00,2013-01-24 08:18:00,
2013-01-24 03:23:00,0.7,0.0,30.08,West,280,5.8,18.6,0,0.00,,---,0.00,VWS V14.00,2013-01-24 08:23:00,
2013-01-24 03:28:00,0.5,0.0,30.08,West,267,5.2,17.5,0,0.00,,---,0.00,VWS V14.00,2013-01-24 08:28:00,
2013-01-24 03:33:00,0.6,0.0,30.08,WNW,284,9.6,14.0,0,0.00,,---,0.00,VWS V14.00,2013-01-24 08:33:00,
2013-01-24 03:38:00,0.3,0.0,30.08,WNW,302,11.1,17.3,0,0.00,,---,0.00,VWS V14.00,2013-01-24 08:38:00,
2013-01-24 03:43:00,0.3,0.0,30.08,West,277,7.5,14.5,0,0.00,,---,0.00,VWS V14.00,2013-01-24 08:43:00,
2013-01-24 03:48:00,0.3,0.0,30.08,West,264,14.4,18.0,0,0.00,,---,0.00,VWS V14.00,2013-01-24 08:48:00,
2013-01-24 03:53:00,0.3,0.0,30.08,West,267,8.3,14.4,0,0.00,,---,0.00,VWS V14.00,2013-01-24 08:53:00,
2013-01-24 03:58:00,0.1,0.0,30.08,WSW,250,4.8,12.7,0,0.00,,---,0.00,VWS V14.00,2013-01-24 08:58:00,
2013-01-24 04:03:00,0.1,0.0,30.08,NW,304,7.9,14.9,0,0.00,,---,0.00,VWS V14.00,2013-01-24 09:03:00,
2013-01-24 04:08:00,0.1,0.0,30.08,WNW,283,0.0,13.9,0,0.00,,---,0.00,VWS V14.00,2013-01-24 09:08:00,
2013-01-24 04:13:00,0.1,0.0,30.08,SW,236,5.7,17.0,0,0.00,,---,0.00,VWS V14.00,2013-01-24 09:13:00,
2013-01-24 04:18:00,0.1,0.0,30.08,WNW,287,7.2,17.6,0,0.00,,---,0.00,VWS V14.00,2013-01-24 09:18:00,
2013-01-24 04:23:00,-0.1,0.0,30.07,WNW,288,8.2,18.0,0,0.00,,---,0.00,VWS V14.00,2013-01-24 09:23:00,
2013-01-24 04:28:00,0.1,0.0,30.07,WNW,294,11.9,17.9,0,0.00,,---,0.00,VWS V14.00,2013-01-24 09:28:00,
2013-01-24 04:33:00,-0.1,0.0,30.07,WNW,300,8.7,22.2,0,0.00,,---,0.00,VWS V14.00,2013-01-24 09:33:00,
2013-01-24 04:38:00,0.1,0.0,30.07,West,281,6.0,17.5,0,0.00,,---,0.00,VWS V14.00,2013-01-24 09:38:00,
2013-01-24 04:43:00,0.1,0.0,30.07,West,281,7.1,19.8,0,0.00,,---,0.00,VWS V14.00,2013-01-24 09:43:00,
2013-01-24 04:48:00,-0.1,0.0,30.07,NW,304,3.0,18.8,0,0.00,,---,0.00,VWS V14.00,2013-01-24 09:48:00,
2013-01-24 04:53:00,-0.2,0.0,30.07,WNW,291,4.9,16.0,0,0.00,,---,0.00,VWS V14.00,2013-01-24 09:53:00,
2013-01-24 04:58:00,-0.1,0.0,30.06,West,263,4.9,14.2,0,0.00,,---,0.00,VWS V14.00,2013-01-24 09:58:00,
2013-01-24 05:03:00,-0.1,0.0,30.06,WNW,292,5.8,23.4,0,0.00,,---,0.00,VWS V14.00,2013-01-24 10:03:00,
2013-01-24 05:08:00,-0.1,0.0,30.06,West,269,6.8,17.9,0,0.00,,---,0.00,VWS V14.00,2013-01-24 10:08:00,
2013-01-24 05:13:00,-0.2,0.0,30.06,NW,325,7.0,18.3,0,0.00,,---,0.00,VWS V14.00,2013-01-24 10:13:00,
2013-01-24 05:18:00,-0.2,0.0,30.06,West,274,6.7,17.4,0,0.00,,---,0.00,VWS V14.00,2013-01-24 10:18:00,
2013-01-24 05:23:00,-0.2,0.0,30.06,West,278,7.6,21.1,0,0.00,,---,0.00,VWS V14.00,2013-01-24 10:23:00,
2013-01-24 05:28:00,-0.2,0.0,30.06,West,280,9.7,19.8,0,0.00,,---,0.00,VWS V14.00,2013-01-24 10:28:00,
2013-01-24 05:33:00,-0.2,0.0,30.06,WNW,300,7.2,22.6,0,0.00,,---,0.00,VWS V14.00,2013-01-24 10:33:00,
2013-01-24 05:38:00,-0.2,0.0,30.07,SW,225,7.8,25.8,0,0.00,,---,0.00,VWS V14.00,2013-01-24 10:38:00,
2013-01-24 05:43:00,-0.4,0.0,30.07,South,179,5.8,15.2,0,0.00,,---,0.00,VWS V14.00,2013-01-24 10:43:00,
2013-01-24 05:48:00,-0.3,0.0,30.07,WSW,253,4.7,13.0,0,0.00,,---,0.00,VWS V14.00,2013-01-24 10:48:00,
2013-01-24 05:53:00,-0.5,0.0,30.07,West,276,8.5,13.7,0,0.00,,---,0.00,VWS V14.00,2013-01-24 10:53:00,
2013-01-24 05:58:00,-0.4,0.0,30.07,WNW,300,8.7,14.5,0,0.00,,---,0.00,VWS V14.00,2013-01-24 10:58:00,
2013-01-24 06:03:00,-0.4,0.0,30.06,West,266,9.9,19.5,0,0.00,,---,0.00,VWS V14.00,2013-01-24 11:03:00,
2013-01-24 06:08:00,-0.4,0.0,30.06,WSW,248,3.4,20.4,0,0.00,,---,0.00,VWS V14.00,2013-01-24 11:08:00,
2013-01-24 06:13:00,-0.1,0.0,30.06,SW,221,5.3,22.1,0,0.00,,---,0.00,VWS V14.00,2013-01-24 11:13:00,
2013-01-24 06:18:00,-0.3,0.0,30.06,WNW,300,9.8,19.8,0,0.00,,---,0.00,VWS V14.00,2013-01-24 11:18:00,
2013-01-24 06:23:00,-0.3,0.0,30.07,WSW,256,7.8,19.1,0,0.00,,---,0.00,VWS V14.00,2013-01-24 11:23:00,
2013-01-24 06:28:00,-0.2,0.0,30.07,WNW,283,6.1,16.5,0,0.00,,---,0.00,VWS V14.00,2013-01-24 11:28:00,
2013-01-24 06:33:00,-0.2,0.0,30.08,West,273,8.7,19.0,0,0.00,,---,0.00,VWS V14.00,2013-01-24 11:33:00,
2013-01-24 06:38:00,-0.2,0.0,30.08,West,277,9.6,16.8,0,0.00,,---,0.00,VWS V14.00,2013-01-24 11:38:00,
2013-01-24 06:43:00,-0.4,0.0,30.08,NW,309,8.3,21.3,0,0.00,,---,0.00,VWS V14.00,2013-01-24 11:43:00,
2013-01-24 06:48:00,-0.4,0.0,30.08,WNW,295,6.8,16.0,0,0.00,,---,0.00,VWS V14.00,2013-01-24 11:48:00,
2013-01-24 06:53:00,-0.4,0.0,30.08,WNW,290,4.2,16.7,0,0.00,,---,0.00,VWS V14.00,2013-01-24 11:53:00,
2013-01-24 06:58:00,-0.3,0.0,30.08,South,180,5.5,18.1,0,0.00,,---,0.00,VWS V14.00,2013-01-24 11:58:00,
2013-01-24 07:03:00,-0.2,0.0,30.08,WSW,253,7.9,15.3,0,0.00,,---,0.00,VWS V14.00,2013-01-24 12:03:00,
2013-01-24 07:08:00,-0.2,0.0,30.08,NW,311,14.7,17.1,0,0.00,,---,0.00,VWS V14.00,2013-01-24 12:08:00,
2013-01-24 07:13:00,-0.1,0.0,30.08,West,267,16.2,17.1,0,0.00,,---,0.00,VWS V14.00,2013-01-24 12:13:00,
2013-01-24 07:18:00,-0.1,0.0,30.08,NW,315,7.8,19.8,0,0.00,,---,0.00,VWS V14.00,2013-01-24 12:18:00,
2013-01-24 07:23:00,0.1,0.0,30.08,WSW,255,11.6,19.4,0,0.00,,---,0.00,VWS V14.00,2013-01-24 12:23:00,
2013-01-24 07:28:00,-0.1,0.0,30.08,WNW,285,9.1,22.4,0,0.00,,---,0.00,VWS V14.00,2013-01-24 12:28:00,
2013-01-24 07:33:00,0.2,0.0,30.08,WNW,301,13.9,15.1,0,0.00,,---,0.00,VWS V14.00,2013-01-24 12:33:00,
2013-01-24 07:38:00,0.3,0.0,30.08,WNW,283,6.5,20.9,0,0.00,,---,0.00,VWS V14.00,2013-01-24 12:38:00,
2013-01-24 07:43:00,0.5,0.0,30.08,WSW,252,9.1,16.5,0,0.00,,---,0.00,VWS V14.00,2013-01-24 12:43:00,
2013-01-24 07:48:00,0.4,0.0,30.09,West,270,9.4,19.0,0,0.00,,---,0.00,VWS V14.00,2013-01-24 12:48:00,
2013-01-24 07:53:00,0.6,0.0,30.09,West,278,3.1,23.3,0,0.00,,---,0.00,VWS V14.00,2013-01-24 12:53:00,
2013-01-24 07:58:00,0.8,0.0,30.08,West,266,6.0,21.8,0,0.00,,---,0.00,VWS V14.00,2013-01-24 12:58:00,
2013-01-24 08:03:00,1.0,0.0,30.09,NW,304,4.5,14.9,0,0.00,,---,0.00,VWS V14.00,2013-01-24 13:03:00,
2013-01-24 08:08:00,1.3,0.0,30.09,WNW,283,8.1,15.2,0,0.00,,---,0.00,VWS V14.00,2013-01-24 13:08:00,
2013-01-24 08:13:00,1.2,0.0,30.09,NW,321,8.1,19.9,0,0.00,,---,0.00,VWS V14.00,2013-01-24 13:13:00,
2013-01-24 08:18:00,1.5,0.0,30.09,West,263,10.0,19.0,0,0.00,,---,0.00,VWS V14.00,2013-01-24 13:18:00,
2013-01-24 08:23:00,1.8,0.0,30.09,West,262,7.3,19.5,0,0.00,,---,0.00,VWS V14.00,2013-01-24 13:23:00,
2013-01-24 08:28:00,1.8,0.0,30.09,WNW,295,8.9,19.6,0,0.00,,---,0.00,VWS V14.00,2013-01-24 13:28:00,
2013-01-24 08:33:00,1.7,0.0,30.09,WNW,285,7.6,21.4,0,0.00,,---,0.00,VWS V14.00,2013-01-24 13:33:00,
2013-01-24 08:38:00,2.0,0.0,30.09,WSW,253,9.6,21.7,0,0.00,,---,0.00,VWS V14.00,2013-01-24 13:38:00,
2013-01-24 08:43:00,2.4,0.0,30.09,NW,307,7.5,23.2,0,0.00,,---,0.00,VWS V14.00,2013-01-24 13:43:00,
2013-01-24 08:48:00,2.9,0.0,30.10,West,260,10.7,15.0,0,0.00,,---,0.00,VWS V14.00,2013-01-24 13:48:00,
2013-01-24 08:53:00,3.0,0.0,30.10,NW,316,5.0,16.4,0,0.00,,---,0.00,VWS V14.00,2013-01-24 13:53:00,
2013-01-24 08:58:00,3.1,0.0,30.10,NNW,328,7.5,22.6,0,0.00,,---,0.00,VWS V14.00,2013-01-24 13:58:00,
2013-01-24 09:03:00,3.3,0.0,30.09,NW,311,12.5,24.2,0,0.00,,---,0.00,VWS V14.00,2013-01-24 14:03:00,
2013-01-24 09:08:00,3.7,0.0,30.09,WNW,285,19.6,19.6,0,0.00,,---,0.00,VWS V14.00,2013-01-24 14:08:00,
2013-01-24 09:13:00,3.9,0.0,30.09,WNW,294,5.5,20.2,0,0.00,,---,0.00,VWS V14.00,2013-01-24 14:13:00,
2013-01-24 09:18:00,4.0,0.0,30.09,NW,316,10.7,20.6,0,0.00,,---,0.00,VWS V14.00,2013-01-24 14:18:00,
2013-01-24 09:23:00,4.2,0.0,30.09,WNW,292,10.0,19.6,0,0.00,,---,0.00,VWS V14.00,2013-01-24 14:23:00,
2013-01-24 09:28:00,4.7,0.0,30.09,West,281,14.2,24.0,0,0.00,,---,0.00,VWS V14.00,2013-01-24 14:28:00,
2013-01-24 09:33:00,4.9,0.0,30.08,West,274,8.8,23.2,0,0.00,,---,0.00,VWS V14.00,2013-01-24 14:33:00,
2013-01-24 09:38:00,5.0,0.0,30.08,NW,315,11.7,25.4,0,0.00,,---,0.00,VWS V14.00,2013-01-24 14:38:00,
2013-01-24 09:43:00,5.6,0.0,30.08,West,271,22.9,22.9,0,0.00,,---,0.00,VWS V14.00,2013-01-24 14:43:00,
2013-01-24 09:48:00,6.3,0.0,30.08,WNW,300,9.8,23.2,0,0.00,,---,0.00,VWS V14.00,2013-01-24 14:48:00,
2013-01-24 09:53:00,6.1,0.0,30.08,WSW,252,9.5,23.5,0,0.00,,---,0.00,VWS V14.00,2013-01-24 14:53:00,
2013-01-24 09:58:00,6.7,0.0,30.08,West,274,11.3,21.3,0,0.00,,---,0.00,VWS V14.00,2013-01-24 14:58:00,
2013-01-24 10:03:00,7.5,0.0,30.08,NW,311,20.0,20.3,0,0.00,,---,0.00,VWS V14.00,2013-01-24 15:03:00,
2013-01-24 10:08:00,7.1,0.0,30.08,WSW,256,8.2,21.1,0,0.00,,---,0.00,VWS V14.00,2013-01-24 15:08:00,
2013-01-24 10:13:00,7.3,0.0,30.08,West,267,13.0,26.0,0,0.00,,---,0.00,VWS V14.00,2013-01-24 15:13:00,
2013-01-24 10:18:00,8.1,0.0,30.08,West,263,14.3,22.8,0,0.00,,---,0.00,VWS V14.00,2013-01-24 15:18:00,
2013-01-24 10:23:00,8.4,0.0,30.08,WNW,300,16.0,22.4,0,0.00,,---,0.00,VWS V14.00,2013-01-24 15:23:00,
2013-01-24 10:28:00,9.4,0.0,30.08,West,264,13.0,22.2,0,0.00,,---,0.00,VWS V14.00,2013-01-24 15:28:00,
2013-01-24 10:33:00,9.6,0.0,30.08,West,260,17.3,25.0,0,0.00,,---,0.00,VWS V14.00,2013-01-24 15:33:00,
2013-01-24 10:38:00,10.5,0.0,30.08,NW,315,8.8,24.9,0,0.00,,---,0.00,VWS V14.00,2013-01-24 15:38:00,
2013-01-24 10:43:00,10.5,0.0,30.08,West,280,8.1,21.9,0,0.00,,---,0.00,VWS V14.00,2013-01-24 15:43:00,
2013-01-24 10:48:00,10.7,0.0,30.08,WNW,290,13.4,22.1,0,0.00,,---,0.00,VWS V14.00,2013-01-24 15:48:00,
2013-01-24 10:53:00,10.8,0.0,30.07,NW,321,11.1,24.8,0,0.00,,---,0.00,VWS V14.00,2013-01-24 15:53:00,
2013-01-24 10:58:00,11.7,0.0,30.07,NW,311,13.0,25.6,0,0.00,,---,0.00,VWS V14.00,2013-01-24 15:58:00,
2013-01-24 11:03:00,12.2,0.0,30.07,West,269,13.4,21.6,0,0.00,,---,0.00,VWS V14.00,2013-01-24 16:03:00,
2013-01-24 11:08:00,12.6,0.0,30.07,WNW,287,8.5,21.2,0,0.00,,---,0.00,VWS V14.00,2013-01-24 16:08:00,
2013-01-24 11:13:00,12.0,0.0,30.06,WNW,291,10.5,22.4,0,0.00,,---,0.00,VWS V14.00,2013-01-24 16:13:00,
2013-01-24 11:18:00,12.0,0.0,30.07,WNW,288,13.7,26.8,0,0.00,,---,0.00,VWS V14.00,2013-01-24 16:18:00,
2013-01-24 11:23:00,11.6,0.0,30.06,NW,309,11.5,25.2,0,0.00,,---,0.00,VWS V14.00,2013-01-24 16:23:00,
2013-01-24 11:28:00,12.4,0.0,30.06,WNW,294,13.0,26.2,0,0.00,,---,0.00,VWS V14.00,2013-01-24 16:28:00,
2013-01-24 11:33:00,12.0,0.0,30.06,WNW,301,8.0,24.0,0,0.00,,---,0.00,VWS V14.00,2013-01-24 16:33:00,
2013-01-24 11:38:00,12.0,0.0,30.06,West,280,14.4,26.3,0,0.00,,---,0.00,VWS V14.00,2013-01-24 16:38:00,
2013-01-24 11:43:00,11.7,0.0,30.05,WSW,257,15.8,31.5,0,0.00,,---,0.00,VWS V14.00,2013-01-24 16:43:00,
2013-01-24 11:48:00,12.0,0.0,30.05,WNW,291,16.7,33.0,0,0.00,,---,0.00,VWS V14.00,2013-01-24 16:48:00,
2013-01-24 11:53:00,12.2,0.0,30.05,West,262,12.1,27.5,0,0.00,,---,0.00,VWS V14.00,2013-01-24 16:53:00,
2013-01-24 11:58:00,12.0,0.0,30.05,NW,318,13.6,29.8,0,0.00,,---,0.00,VWS V14.00,2013-01-24 16:58:00,
2013-01-24 12:03:00,12.5,0.0,30.05,NNW,328,9.0,31.6,0,0.00,,---,0.00,VWS V14.00,2013-01-24 17:03:00,
2013-01-24 12:08:00,12.9,0.0,30.05,West,259,10.0,26.2,0,0.00,,---,0.00,VWS V14.00,2013-01-24 17:08:00,
2013-01-24 12:13:00,12.5,0.0,30.05,WNW,288,17.5,24.9,0,0.00,,---,0.00,VWS V14.00,2013-01-24 17:13:00,
2013-01-24 12:18:00,12.7,0.0,30.05,NW,321,12.3,24.9,0,0.00,,---,0.00,VWS V14.00,2013-01-24 17:18:00,
2013-01-24 12:23:00,12.7,0.0,30.05,WNW,294,10.7,31.4,0,0.00,,---,0.00,VWS V14.00,2013-01-24 17:23:00,
2013-01-24 12:28:00,13.2,0.0,30.05,NNW,332,6.0,24.7,0,0.00,,---,0.00,VWS V14.00,2013-01-24 17:28:00,
2013-01-24 12:33:00,13.1,0.0,30.05,WNW,290,14.0,26.7,0,0.00,,---,0.00,VWS V14.00,2013-01-24 17:33:00,
2013-01-24 12:38:00,13.2,0.0,30.05,WNW,301,11.0,24.9,0,0.00,,---,0.00,VWS V14.00,2013-01-24 17:38:00,
2013-01-24 12:43:00,13.6,0.0,30.04,WSW,250,20.1,29.5,0,0.00,,---,0.00,VWS V14.00,2013-01-24 17:43:00,
2013-01-24 12:48:00,14.0,0.0,30.04,WNW,302,18.7,29.3,0,0.00,,---,0.00,VWS V14.00,2013-01-24 17:48:00,
2013-01-24 12:53:00,13.9,0.0,30.04,WNW,283,19.6,28.8,0,0.00,,---,0.00,VWS V14.00,2013-01-24 17:53:00,
2013-01-24 12:58:00,13.5,0.0,30.04,NNW,346,14.2,27.3,0,0.00,,---,0.00,VWS V14.00,2013-01-24 17:58:00,
2013-01-24 13:03:00,14.2,0.0,30.04,West,262,20.4,26.0,0,0.00,,---,0.00,VWS V14.00,2013-01-24 18:03:00,
2013-01-24 13:08:00,14.4,0.0,30.04,NW,305,19.9,31.1,0,0.00,,---,0.00,VWS V14.00,2013-01-24 18:08:00,
2013-01-24 13:13:00,14.8,0.0,30.03,WNW,285,11.7,29.4,0,0.00,,---,0.00,VWS V14.00,2013-01-24 18:13:00,
2013-01-24 13:18:00,14.3,0.0,30.03,WNW,292,13.7,26.3,0,0.00,,---,0.00,VWS V14.00,2013-01-24 18:18:00,
2013-01-24 13:23:00,15.0,0.0,30.03,WNW,297,14.2,27.0,0,0.00,,---,0.00,VWS V14.00,2013-01-24 18:23:00,
2013-01-24 13:28:00,14.6,0.0,30.03,WNW,284,18.0,27.1,0,0.00,,---,0.00,VWS V14.00,2013-01-24 18:28:00,
2013-01-24 13:33:00,14.7,0.0,30.02,WNW,287,16.1,26.4,0,0.00,,---,0.00,VWS V14.00,2013-01-24 18:33:00,
2013-01-24 13:38:00,14.3,0.0,30.02,West,273,23.7,27.9,0,0.00,,---,0.00,VWS V14.00,2013-01-24 18:38:00,
2013-01-24 13:43:00,14.4,0.0,30.02,WNW,295,11.3,30.2,0,0.00,,---,0.00,VWS V14.00,2013-01-24 18:43:00,
2013-01-24 13:48:00,14.2,0.0,30.02,WNW,301,18.6,29.9,0,0.00,,---,0.00,VWS V14.00,2013-01-24 18:48:00,
2013-01-24 13:53:00,14.6,0.0,30.02,WNW,290,15.2,29.1,0,0.00,,---,0.00,VWS V14.00,2013-01-24 18:53:00,
2013-01-24 13:58:00,14.2,0.0,30.02,West,267,11.5,26.0,0,0.00,,---,0.00,VWS V14.00,2013-01-24 18:58:00,
2013-01-24 14:03:00,14.8,0.0,30.02,NW,305,14.3,22.3,0,0.00,,---,0.00,VWS V14.00,2013-01-24 19:03:00,
2013-01-24 14:08:00,14.7,0.0,30.02,WNW,298,7.5,32.2,0,0.00,,---,0.00,VWS V14.00,2013-01-24 19:08:00,
2013-01-24 14:13:00,14.8,0.0,30.02,WNW,300,6.8,26.2,0,0.00,,---,0.00,VWS V14.00,2013-01-24 19:13:00,
2013-01-24 14:18:00,14.8,0.0,30.02,NW,323,12.2,23.5,0,0.00,,---,0.00,VWS V14.00,2013-01-24 19:18:00,
2013-01-24 14:23:00,14.5,0.0,30.02,NW,322,10.0,25.5,0,0.00,,---,0.00,VWS V14.00,2013-01-24 19:23:00,
2013-01-24 14:28:00,14.8,0.0,30.02,West,276,15.3,29.3,0,0.00,,---,0.00,VWS V14.00,2013-01-24 19:28:00,
2013-01-24 14:33:00,14.3,0.0,30.02,West,277,15.0,30.9,0,0.00,,---,0.00,VWS V14.00,2013-01-24 19:33:00,
2013-01-24 14:38:00,14.5,0.0,30.02,West,269,20.5,32.4,0,0.00,,---,0.00,VWS V14.00,2013-01-24 19:38:00,
2013-01-24 14:43:00,14.6,0.0,30.02,West,274,11.2,27.5,0,0.00,,---,0.00,VWS V14.00,2013-01-24 19:43:00,
2013-01-24 14:48:00,14.4,0.0,30.03,NW,316,16.9,25.7,0,0.00,,---,0.00,VWS V14.00,2013-01-24 19:48:00,
2013-01-24 14:53:00,14.5,0.0,30.03,NW,311,17.8,26.3,0,0.00,,---,0.00,VWS V14.00,2013-01-24 19:53:00,
2013-01-24 14:58:00,14.7,0.0,30.03,NW,314,14.5,24.9,0,0.00,,---,0.00,VWS V14.00,2013-01-24 19:58:00,
2013-01-24 15:03:00,15.0,0.0,30.03,West,259,0.0,18.3,0,0.00,,---,0.00,VWS V14.00,2013-01-24 20:03:00,
2013-01-24 15:08:00,15.0,0.0,30.03,NNW,328,14.7,20.8,0,0.00,,---,0.00,VWS V14.00,2013-01-24 20:08:00,
2013-01-24 15:13:00,15.0,0.0,30.03,SW,217,13.9,23.1,0,0.00,,---,0.00,VWS V14.00,2013-01-24 20:13:00,
2013-01-24 15:18:00,15.0,0.0,30.03,WNW,290,8.0,20.1,0,0.00,,---,0.00,VWS V14.00,2013-01-24 20:18:00,
2013-01-24 15:23:00,15.2,0.0,30.03,West,276,8.2,22.2,0,0.00,,---,0.00,VWS V14.00,2013-01-24 20:23:00,
2013-01-24 15:28:00,15.2,0.0,30.03,WNW,292,6.5,27.5,0,0.00,,---,0.00,VWS V14.00,2013-01-24 20:28:00,
2013-01-24 15:33:00,15.3,0.0,30.03,West,277,17.6,25.5,0,0.00,,---,0.00,VWS V14.00,2013-01-24 20:33:00,
2013-01-24 15:38:00,15.3,0.0,30.03,NW,318,14.1,26.5,0,0.00,,---,0.00,VWS V14.00,2013-01-24 20:38:00,
2013-01-24 15:43:00,15.4,0.0,30.03,NW,319,8.1,20.1,0,0.00,,---,0.00,VWS V14.00,2013-01-24 20:43:00,
2013-01-24 15:48:00,15.4,0.0,30.03,WNW,295,0.0,18.1,0,0.00,,---,0.00,VWS V14.00,2013-01-24 20:48:00,
2013-01-24 15:53:00,15.4,0.0,30.03,NW,308,14.4,23.2,0,0.00,,---,0.00,VWS V14.00,2013-01-24 20:53:00,
2013-01-24 15:58:00,15.4,0.0,30.03,NW,319,10.2,22.1,0,0.00,,---,0.00,VWS V14.00,2013-01-24 20:58:00,
2013-01-24 16:03:00,15.4,0.0,30.03,West,273,8.8,22.6,0,0.00,,---,0.00,VWS V14.00,2013-01-24 21:03:00,
2013-01-24 16:08:00,15.4,0.0,30.03,NW,318,8.5,25.7,0,0.00,,---,0.00,VWS V14.00,2013-01-24 21:08:00,
2013-01-24 16:13:00,15.4,0.0,30.04,NW,307,6.3,24.4,0,0.00,,---,0.00,VWS V14.00,2013-01-24 21:13:00,
2013-01-24 16:18:00,15.3,0.0,30.04,West,263,9.9,21.7,0,0.00,,---,0.00,VWS V14.00,2013-01-24 21:18:00,
2013-01-24 16:23:00,15.2,0.0,30.04,WNW,288,7.4,21.6,0,0.00,,---,0.00,VWS V14.00,2013-01-24 21:23:00,
2013-01-24 16:28:00,15.0,0.0,30.04,WNW,288,7.4,19.9,0,0.00,,---,0.00,VWS V14.00,2013-01-24 21:28:00,
2013-01-24 16:33:00,14.9,0.0,30.04,West,264,6.2,24.8,0,0.00,,---,0.00,VWS V14.00,2013-01-24 21:33:00,
2013-01-24 16:38:00,14.7,0.0,30.04,NW,323,14.7,22.2,0,0.00,,---,0.00,VWS V14.00,2013-01-24 21:38:00,
2013-01-24 16:43:00,14.5,0.0,30.04,West,281,11.4,31.3,0,0.00,,---,0.00,VWS V14.00,2013-01-24 21:43:00,
2013-01-24 16:48:00,14.4,0.0,30.04,West,260,10.2,23.7,0,0.00,,---,0.00,VWS V14.00,2013-01-24 21:48:00,
2013-01-24 16:53:00,14.2,0.0,30.04,NW,309,8.1,21.7,0,0.00,,---,0.00,VWS V14.00,2013-01-24 21:53:00,
2013-01-24 16:58:00,14.3,0.0,30.05,WNW,295,7.1,19.4,0,0.00,,---,0.00,VWS V14.00,2013-01-24 21:58:00,
2013-01-24 17:03:00,14.0,0.0,30.05,WSW,246,8.1,21.3,0,0.00,,---,0.00,VWS V14.00,2013-01-24 22:03:00,
2013-01-24 17:08:00,13.8,0.0,30.05,NW,304,6.2,20.8,0,0.00,,---,0.00,VWS V14.00,2013-01-24 22:08:00,
2013-01-24 17:13:00,13.8,0.0,30.05,WSW,256,6.1,16.3,0,0.00,,---,0.00,VWS V14.00,2013-01-24 22:13:00,
2013-01-24 17:18:00,13.6,0.0,30.06,SW,235,8.1,21.7,0,0.00,,---,0.00,VWS V14.00,2013-01-24 22:18:00,
2013-01-24 17:23:00,13.6,0.0,30.06,West,280,7.6,16.6,0,0.00,,---,0.00,VWS V14.00,2013-01-24 22:23:00,
2013-01-24 17:28:00,13.7,0.0,30.06,SW,225,3.2,17.0,0,0.00,,---,0.00,VWS V14.00,2013-01-24 22:28:00,
2013-01-24 17:33:00,13.6,0.0,30.06,WNW,292,4.4,23.9,0,0.00,,---,0.00,VWS V14.00,2013-01-24 22:33:00,
2013-01-24 17:38:00,13.6,0.0,30.06,WNW,292,8.8,22.2,0,0.00,,---,0.00,VWS V14.00,2013-01-24 22:38:00,
2013-01-24 17:43:00,13.6,0.0,30.06,SW,221,10.7,21.9,0,0.00,,---,0.00,VWS V14.00,2013-01-24 22:43:00,
2013-01-24 17:48:00,13.7,0.0,30.05,NW,308,9.6,29.1,0,0.00,,---,0.00,VWS V14.00,2013-01-24 22:48:00,
2013-01-24 17:53:00,13.9,0.0,30.06,WNW,291,12.7,26.6,0,0.00,,---,0.00,VWS V14.00,2013-01-24 22:53:00,
2013-01-24 17:58:00,13.8,0.0,30.06,WSW,252,6.8,24.2,0,0.00,,---,0.00,VWS V14.00,2013-01-24 22:58:00,
2013-01-24 18:03:00,13.6,0.0,30.06,WNW,297,7.8,20.7,0,0.00,,---,0.00,VWS V14.00,2013-01-24 23:03:00,
2013-01-24 18:08:00,13.6,0.0,30.06,NW,315,8.6,17.7,0,0.00,,---,0.00,VWS V14.00,2013-01-24 23:08:00,
2013-01-24 18:13:00,13.6,0.0,30.07,West,274,6.9,23.7,0,0.00,,---,0.00,VWS V14.00,2013-01-24 23:13:00,
2013-01-24 18:18:00,13.6,0.0,30.07,WNW,284,14.9,22.4,0,0.00,,---,0.00,VWS V14.00,2013-01-24 23:18:00,
2013-01-24 18:24:00,13.4,0.0,30.08,WSW,245,9.9,22.6,0,0.00,,---,0.00,VWS V14.00,2013-01-24 23:24:00,
2013-01-24 18:29:00,13.3,0.0,30.08,WSW,256,10.4,23.1,0,47.67,,---,0.00,VWS V14.00,2013-01-24 23:29:00,
2013-01-24 18:34:00,13.5,0.0,30.08,WNW,288,8.1,16.9,0,0.00,,---,0.00,VWS V14.00,2013-01-24 23:34:00,
2013-01-24 18:39:00,13.4,0.0,30.08,West,263,13.9,22.6,0,0.00,,---,0.00,VWS V14.00,2013-01-24 23:39:00,
2013-01-24 18:44:00,13.4,0.0,30.08,SW,222,9.9,20.1,0,0.00,,---,0.00,VWS V14.00,2013-01-24 23:44:00,
2013-01-24 18:49:00,13.3,0.0,30.09,West,271,6.5,21.7,0,0.00,,---,0.00,VWS V14.00,2013-01-24 23:49:00,
2013-01-24 18:54:00,13.2,0.0,30.09,SSW,205,14.2,25.8,0,0.00,,---,0.00,VWS V14.00,2013-01-24 23:54:00,
2013-01-24 18:59:00,13.3,0.0,30.08,NW,304,10.8,23.9,0,0.00,,---,0.00,VWS V14.00,2013-01-24 23:59:00,
2013-01-24 19:04:00,13.2,0.0,30.09,WNW,290,8.6,24.8,0,0.00,,---,0.00,VWS V14.00,2013-01-25 00:04:00,
2013-01-24 19:09:00,13.3,0.0,30.08,West,263,14.2,28.6,0,0.00,,---,0.00,VWS V14.00,2013-01-25 00:09:00,
2013-01-24 19:14:00,13.1,0.0,30.08,NW,307,15.1,25.2,0,0.00,,---,0.00,VWS V14.00,2013-01-25 00:14:00,
2013-01-24 19:19:00,13.2,0.0,30.08,NNW,345,5.3,19.8,0,0.00,,---,0.00,VWS V14.00,2013-01-25 00:19:00,
2013-01-24 19:24:00,13.0,0.0,30.08,West,263,8.1,25.9,0,0.00,,---,0.00,VWS V14.00,2013-01-25 00:24:00,
2013-01-24 19:29:00,13.0,0.0,30.08,NW,312,13.4,22.9,0,0.00,,---,0.00,VWS V14.00,2013-01-25 00:29:00,
2013-01-24 19:34:00,13.0,0.0,30.08,NW,308,8.0,23.0,0,0.00,,---,0.00,VWS V14.00,2013-01-25 00:34:00,
2013-01-24 19:39:00,12.8,0.0,30.09,NW,322,9.2,24.8,0,0.00,,---,0.00,VWS V14.00,2013-01-25 00:39:00,
2013-01-24 19:44:00,12.7,0.0,30.09,NW,305,9.4,21.3,0,0.00,,---,0.00,VWS V14.00,2013-01-25 00:44:00,
2013-01-24 19:49:00,12.8,0.0,30.09,SW,218,8.7,23.6,0,0.00,,---,0.00,VWS V14.00,2013-01-25 00:49:00,
2013-01-24 19:54:00,12.7,0.0,30.09,WNW,302,8.9,19.9,0,0.00,,---,0.00,VWS V14.00,2013-01-25 00:54:00,
2013-01-24 19:59:00,12.5,0.0,30.09,WNW,298,9.8,21.3,0,0.00,,---,0.00,VWS V14.00,2013-01-25 00:59:00,
2013-01-24 20:04:00,12.4,0.0,30.09,NW,312,10.4,18.8,0,0.00,,---,0.00,VWS V14.00,2013-01-25 01:04:00,
2013-01-24 20:09:00,12.4,0.0,30.09,WNW,297,14.6,15.6,0,0.00,,---,0.00,VWS V14.00,2013-01-25 01:09:00,
2013-01-24 20:14:00,12.3,0.0,30.10,North,359,7.4,20.1,0,0.00,,---,0.00,VWS V14.00,2013-01-25 01:14:00,
2013-01-24 20:19:00,12.4,0.0,30.10,West,274,4.8,18.6,0,0.00,,---,0.00,VWS V14.00,2013-01-25 01:19:00,
2013-01-24 20:24:00,12.2,0.0,30.10,West,259,12.5,18.0,0,0.00,,---,0.00,VWS V14.00,2013-01-25 01:24:00,
2013-01-24 20:29:00,12.3,0.0,30.10,WNW,284,12.6,24.2,0,0.00,,---,0.00,VWS V14.00,2013-01-25 01:29:00,
2013-01-24 20:34:00,12.2,0.0,30.10,West,280,12.9,23.4,0,0.00,,---,0.00,VWS V14.00,2013-01-25 01:34:00,
2013-01-24 20:39:00,12.1,0.0,30.11,West,281,12.0,22.6,0,0.00,,---,0.00,VWS V14.00,2013-01-25 01:39:00,
2013-01-24 20:44:00,12.1,0.0,30.11,West,274,14.7,24.4,0,0.00,,---,0.00,VWS V14.00,2013-01-25 01:44:00,
2013-01-24 20:49:00,11.9,0.0,30.11,WNW,300,5.9,22.1,0,0.00,,---,0.00,VWS V14.00,2013-01-25 01:49:00,
2013-01-24 20:54:00,11.8,0.0,30.11,West,274,12.4,23.1,0,0.00,,---,0.00,VWS V14.00,2013-01-25 01:54:00,
2013-01-24 20:59:00,11.7,0.0,30.11,NW,307,14.5,22.8,0,0.00,,---,0.00,VWS V14.00,2013-01-25 01:59:00,
2013-01-24 21:04:00,11.5,0.0,30.12,NW,308,11.6,24.2,0,0.00,,---,0.00,VWS V14.00,2013-01-25 02:04:00,
2013-01-24 21:09:00,11.4,0.0,30.12,West,280,10.0,25.0,0,0.00,,---,0.00,VWS V14.00,2013-01-25 02:09:00,
2013-01-24 21:14:00,11.5,0.0,30.13,West,281,11.6,21.9,0,0.00,,---,0.00,VWS V14.00,2013-01-25 02:14:00,
2013-01-24 21:19:00,11.5,0.0,30.13,West,266,15.9,23.2,0,0.00,,---,0.00,VWS V14.00,2013-01-25 02:19:00,
2013-01-24 21:24:00,11.0,0.0,30.13,NNW,328,10.9,24.0,0,0.00,,---,0.00,VWS V14.00,2013-01-25 02:24:00,
2013-01-24 21:29:00,10.8,0.0,30.13,West,278,11.1,18.5,0,0.00,,---,0.00,VWS V14.00,2013-01-25 02:29:00,
2013-01-24 21:34:00,10.8,0.0,30.13,WNW,288,14.6,21.7,0,0.00,,---,0.00,VWS V14.00,2013-01-25 02:34:00,
2013-01-24 21:39:00,10.9,0.0,30.14,WNW,288,12.1,26.5,0,0.00,,---,0.00,VWS V14.00,2013-01-25 02:39:00,
2013-01-24 21:44:00,10.8,0.0,30.14,WNW,300,5.7,19.6,0,0.00,,---,0.00,VWS V14.00,2013-01-25 02:44:00,
2013-01-24 21:49:00,10.6,0.0,30.14,West,273,5.3,20.3,0,0.00,,---,0.00,VWS V14.00,2013-01-25 02:49:00,
2013-01-24 21:54:00,10.5,0.0,30.14,NW,304,11.1,24.1,0,0.00,,---,0.00,VWS V14.00,2013-01-25 02:54:00,
2013-01-24 21:59:00,10.3,0.0,30.14,West,276,11.7,22.1,0,0.00,,---,0.00,VWS V14.00,2013-01-25 02:59:00,
2013-01-24 22:04:00,10.5,0.0,30.14,WNW,300,9.6,23.9,0,0.00,,---,0.00,VWS V14.00,2013-01-25 03:04:00,
2013-01-24 22:09:00,10.2,0.0,30.14,WNW,300,12.6,23.4,0,0.00,,---,0.00,VWS V14.00,2013-01-25 03:09:00,
2013-01-24 22:14:00,10.2,0.0,30.15,NW,309,10.4,19.9,0,0.00,,---,0.00,VWS V14.00,2013-01-25 03:14:00,
2013-01-24 22:19:00,10.1,0.0,30.15,SSW,201,5.0,17.9,0,0.00,,---,0.00,VWS V14.00,2013-01-25 03:19:00,
2013-01-24 22:24:00,10.0,0.0,30.15,West,280,9.0,20.4,0,0.00,,---,0.00,VWS V14.00,2013-01-25 03:24:00,
2013-01-24 22:29:00,9.9,0.0,30.15,NW,325,6.5,19.3,0,0.00,,---,0.00,VWS V14.00,2013-01-25 03:29:00,
2013-01-24 22:34:00,10.0,0.0,30.14,WNW,285,7.7,21.6,0,0.00,,---,0.00,VWS V14.00,2013-01-25 03:34:00,
2013-01-24 22:39:00,9.8,0.0,30.16,WNW,283,7.5,19.8,0,0.00,,---,0.00,VWS V14.00,2013-01-25 03:39:00,
2013-01-24 22:44:00,9.8,0.0,30.15,WNW,284,19.1,20.8,0,0.00,,---,0.00,VWS V14.00,2013-01-25 03:44:00,
2013-01-24 22:49:00,9.8,0.0,30.15,NW,314,9.7,28.4,0,0.00,,---,0.00,VWS V14.00,2013-01-25 03:49:00,
2013-01-24 22:54:00,9.9,0.0,30.15,West,270,9.6,22.6,0,0.00,,---,0.00,VWS V14.00,2013-01-25 03:54:00,
2013-01-24 22:59:00,9.6,0.0,30.15,WNW,298,16.5,21.4,0,0.00,,---,0.00,VWS V14.00,2013-01-25 03:59:00,
2013-01-24 23:04:00,9.7,0.0,30.15,West,270,8.8,23.5,0,0.00,,---,0.00,VWS V14.00,2013-01-25 04:04:00,
2013-01-24 23:09:00,9.7,0.0,30.16,West,278,11.2,25.2,0,0.00,,---,0.00,VWS V14.00,2013-01-25 04:09:00,
2013-01-24 23:14:00,9.7,0.0,30.16,West,271,9.6,21.1,0,0.00,,---,0.00,VWS V14.00,2013-01-25 04:14:00,
2013-01-24 23:19:00,9.5,0.0,30.16,SSW,212,15.6,24.2,0,0.00,,---,0.00,VWS V14.00,2013-01-25 04:19:00,
2013-01-24 23:24:00,9.4,0.0,30.15,West,276,9.0,21.7,0,0.00,,---,0.00,VWS V14.00,2013-01-25 04:24:00,
2013-01-24 23:29:00,9.3,0.0,30.15,WNW,290,20.1,24.0,0,0.00,,---,0.00,VWS V14.00,2013-01-25 04:29:00,
2013-01-24 23:33:00,9.5,0.0,30.15,WNW,292,11.7,27.0,0,0.00,,---,0.00,VWS V14.00,2013-01-25 04:33:00,
2013-01-24 23:39:00,9.4,0.0,30.15,WNW,283,11.1,27.3,0,0.00,,---,0.00,VWS V14.00,2013-01-25 04:39:00,
2013-01-24 23:43:00,9.2,0.0,30.16,WNW,284,12.9,25.0,0,0.00,,---,0.00,VWS V14.00,2013-01-25 04:43:00,
2013-01-24 23:48:00,9.2,0.0,30.16,West,280,15.8,23.7,0,0.00,,---,0.00,VWS V14.00,2013-01-25 04:48:00,